sensor_id;sensor_type;location;lat;lon;timestamp;P1;durP1;ratioP1;P2;durP2;ratioP2
8415;SDS011;4245;42.120;24.732;2023-02-27T00:00:11;10.83;;;5.00;;
8415;SDS011;4245;42.120;24.732;2023-02-27T00:02:40;15.30;;;5.60;;
8415;SDS011;4245;42.120;24.732;2023-02-27T00:05:08;11.20;;;4.53;;
8415;SDS011;4245;42.120;24.732;2023-02-27T00:07:35;12.93;;;4.27;;
8415;SDS011;4245;42.120;24.732;2023-02-27T00:10:03;16.13;;;4.80;;
8415;SDS011;4245;42.120;24.732;2023-02-27T00:12:32;12.00;;;4.73;;
8415;SDS011;4245;42.120;24.732;2023-02-27T00:15:02;11.47;;;4.57;;
8415;SDS011;4245;42.120;24.732;2023-02-27T00:17:30;14.93;;;5.30;;
8415;SDS011;4245;42.120;24.732;2023-02-27T00:19:57;12.97;;;4.87;;
8415;SDS011;4245;42.120;24.732;2023-02-27T00:22:23;17.20;;;5.10;;
8415;SDS011;4245;42.120;24.732;2023-02-27T00:24:50;13.10;;;4.37;;
8415;SDS011;4245;42.120;24.732;2023-02-27T00:27:17;13.50;;;4.80;;
8415;SDS011;4245;42.120;24.732;2023-02-27T00:29:45;16.87;;;5.10;;
8415;SDS011;4245;42.120;24.732;2023-02-27T00:32:12;16.87;;;4.70;;
8415;SDS011;4245;42.120;24.732;2023-02-27T00:34:39;13.13;;;5.07;;
8415;SDS011;4245;42.120;24.732;2023-02-27T00:37:07;13.93;;;4.80;;
8415;SDS011;4245;42.120;24.732;2023-02-27T00:39:33;16.43;;;4.53;;
8415;SDS011;4245;42.120;24.732;2023-02-27T00:42:00;14.83;;;5.17;;
8415;SDS011;4245;42.120;24.732;2023-02-27T00:44:27;14.63;;;4.83;;
8415;SDS011;4245;42.120;24.732;2023-02-27T00:46:56;14.40;;;5.23;;
8415;SDS011;4245;42.120;24.732;2023-02-27T00:49:22;16.47;;;4.80;;
8415;SDS011;4245;42.120;24.732;2023-02-27T00:51:50;15.87;;;5.10;;
8415;SDS011;4245;42.120;24.732;2023-02-27T00:54:17;18.40;;;5.10;;
8415;SDS011;4245;42.120;24.732;2023-02-27T00:56:44;14.60;;;5.30;;
8415;SDS011;4245;42.120;24.732;2023-02-27T00:59:11;14.23;;;5.17;;
8415;SDS011;4245;42.120;24.732;2023-02-27T01:01:38;13.40;;;4.97;;
8415;SDS011;4245;42.120;24.732;2023-02-27T01:04:06;17.23;;;6.27;;
8415;SDS011;4245;42.120;24.732;2023-02-27T01:06:33;15.20;;;5.63;;
8415;SDS011;4245;42.120;24.732;2023-02-27T01:09:00;18.83;;;5.13;;
8415;SDS011;4245;42.120;24.732;2023-02-27T01:11:27;20.60;;;7.07;;
8415;SDS011;4245;42.120;24.732;2023-02-27T01:13:53;15.33;;;6.20;;
8415;SDS011;4245;42.120;24.732;2023-02-27T01:16:21;14.17;;;5.00;;
8415;SDS011;4245;42.120;24.732;2023-02-27T01:18:48;16.00;;;5.47;;
8415;SDS011;4245;42.120;24.732;2023-02-27T01:21:16;15.53;;;5.60;;
8415;SDS011;4245;42.120;24.732;2023-02-27T01:23:43;15.03;;;5.23;;
8415;SDS011;4245;42.120;24.732;2023-02-27T01:26:10;14.80;;;5.43;;
8415;SDS011;4245;42.120;24.732;2023-02-27T01:28:36;16.30;;;4.60;;
8415;SDS011;4245;42.120;24.732;2023-02-27T01:31:03;14.03;;;5.40;;
8415;SDS011;4245;42.120;24.732;2023-02-27T01:33:30;16.83;;;4.90;;
8415;SDS011;4245;42.120;24.732;2023-02-27T01:35:57;14.30;;;5.30;;
8415;SDS011;4245;42.120;24.732;2023-02-27T01:38:25;16.97;;;5.30;;
8415;SDS011;4245;42.120;24.732;2023-02-27T01:40:52;14.37;;;5.10;;
8415;SDS011;4245;42.120;24.732;2023-02-27T01:43:20;17.40;;;5.67;;
8415;SDS011;4245;42.120;24.732;2023-02-27T01:45:48;13.17;;;5.07;;
8415;SDS011;4245;42.120;24.732;2023-02-27T01:48:15;19.30;;;5.63;;
8415;SDS011;4245;42.120;24.732;2023-02-27T01:50:48;12.43;;;4.73;;
8415;SDS011;4245;42.120;24.732;2023-02-27T01:53:18;17.93;;;5.27;;
8415;SDS011;4245;42.120;24.732;2023-02-27T01:55:50;13.73;;;5.30;;
8415;SDS011;4245;42.120;24.732;2023-02-27T01:58:19;15.43;;;5.20;;
8415;SDS011;4245;42.120;24.732;2023-02-27T02:00:47;14.40;;;5.30;;
8415;SDS011;4245;42.120;24.732;2023-02-27T02:03:17;14.80;;;5.60;;
8415;SDS011;4245;42.120;24.732;2023-02-27T02:05:51;13.23;;;5.40;;
8415;SDS011;4245;42.120;24.732;2023-02-27T02:08:20;19.63;;;5.73;;
8415;SDS011;4245;42.120;24.732;2023-02-27T02:10:52;14.17;;;4.83;;
8415;SDS011;4245;42.120;24.732;2023-02-27T02:13:21;15.40;;;5.13;;
8415;SDS011;4245;42.120;24.732;2023-02-27T02:15:51;18.47;;;5.93;;
8415;SDS011;4245;42.120;24.732;2023-02-27T02:18:29;17.63;;;5.23;;
8415;SDS011;4245;42.120;24.732;2023-02-27T02:21:18;15.33;;;6.17;;
8415;SDS011;4245;42.120;24.732;2023-02-27T02:24:21;18.30;;;5.10;;
8415;SDS011;4245;42.120;24.732;2023-02-27T02:27:25;20.37;;;5.70;;
8415;SDS011;4245;42.120;24.732;2023-02-27T02:42:12;16.20;;;5.53;;
8415;SDS011;4245;42.120;24.732;2023-02-27T02:44:47;21.00;;;5.77;;
8415;SDS011;4245;42.120;24.732;2023-02-27T02:47:21;19.33;;;5.87;;
8415;SDS011;4245;42.120;24.732;2023-02-27T02:49:58;20.27;;;7.40;;
8415;SDS011;4245;42.120;24.732;2023-02-27T02:52:34;13.17;;;5.70;;
8415;SDS011;4245;42.120;24.732;2023-02-27T02:55:11;13.30;;;5.57;;
8415;SDS011;4245;42.120;24.732;2023-02-27T02:57:42;13.40;;;5.63;;
8415;SDS011;4245;42.120;24.732;2023-02-27T03:00:15;16.67;;;6.07;;
8415;SDS011;4245;42.120;24.732;2023-02-27T03:02:46;18.23;;;6.27;;
8415;SDS011;4245;42.120;24.732;2023-02-27T03:05:19;17.87;;;6.63;;
8415;SDS011;4245;42.120;24.732;2023-02-27T03:07:51;17.23;;;6.37;;
8415;SDS011;4245;42.120;24.732;2023-02-27T03:10:25;20.60;;;6.00;;
8415;SDS011;4245;42.120;24.732;2023-02-27T03:12:57;15.97;;;4.70;;
8415;SDS011;4245;42.120;24.732;2023-02-27T03:15:27;15.70;;;5.33;;
8415;SDS011;4245;42.120;24.732;2023-02-27T03:18:00;15.90;;;5.33;;
8415;SDS011;4245;42.120;24.732;2023-02-27T03:20:31;14.53;;;5.60;;
8415;SDS011;4245;42.120;24.732;2023-02-27T03:23:03;17.50;;;5.60;;
8415;SDS011;4245;42.120;24.732;2023-02-27T03:25:38;14.33;;;5.47;;
8415;SDS011;4245;42.120;24.732;2023-02-27T03:28:11;18.50;;;6.80;;
8415;SDS011;4245;42.120;24.732;2023-02-27T03:30:44;18.60;;;5.90;;
8415;SDS011;4245;42.120;24.732;2023-02-27T03:33:16;15.30;;;5.80;;
8415;SDS011;4245;42.120;24.732;2023-02-27T03:35:48;25.73;;;5.80;;
8415;SDS011;4245;42.120;24.732;2023-02-27T03:38:19;26.80;;;7.13;;
8415;SDS011;4245;42.120;24.732;2023-02-27T03:40:56;21.93;;;7.30;;
8415;SDS011;4245;42.120;24.732;2023-02-27T03:43:31;21.07;;;7.10;;
8415;SDS011;4245;42.120;24.732;2023-02-27T03:46:06;18.60;;;6.63;;
8415;SDS011;4245;42.120;24.732;2023-02-27T03:48:36;13.73;;;6.20;;
8415;SDS011;4245;42.120;24.732;2023-02-27T03:51:08;22.73;;;12.03;;
8415;SDS011;4245;42.120;24.732;2023-02-27T03:53:36;20.93;;;6.00;;
8415;SDS011;4245;42.120;24.732;2023-02-27T03:56:13;18.60;;;8.37;;
8415;SDS011;4245;42.120;24.732;2023-02-27T03:58:44;18.63;;;6.20;;
8415;SDS011;4245;42.120;24.732;2023-02-27T04:01:11;22.03;;;8.10;;
8415;SDS011;4245;42.120;24.732;2023-02-27T04:03:40;20.77;;;9.67;;
8415;SDS011;4245;42.120;24.732;2023-02-27T04:06:11;28.37;;;8.70;;
8415;SDS011;4245;42.120;24.732;2023-02-27T04:08:58;21.10;;;7.07;;
8415;SDS011;4245;42.120;24.732;2023-02-27T04:11:47;17.43;;;6.40;;
8415;SDS011;4245;42.120;24.732;2023-02-27T04:14:35;27.13;;;7.03;;
8415;SDS011;4245;42.120;24.732;2023-02-27T04:17:16;18.20;;;6.83;;
8415;SDS011;4245;42.120;24.732;2023-02-27T04:19:53;19.83;;;7.67;;
8415;SDS011;4245;42.120;24.732;2023-02-27T04:22:40;23.63;;;7.00;;
8415;SDS011;4245;42.120;24.732;2023-02-27T04:25:19;18.87;;;6.80;;
8415;SDS011;4245;42.120;24.732;2023-02-27T04:27:55;17.60;;;5.43;;
8415;SDS011;4245;42.120;24.732;2023-02-27T04:30:31;16.77;;;5.80;;
8415;SDS011;4245;42.120;24.732;2023-02-27T04:33:08;19.70;;;5.50;;
8415;SDS011;4245;42.120;24.732;2023-02-27T04:35:42;18.60;;;6.67;;
8415;SDS011;4245;42.120;24.732;2023-02-27T04:38:16;24.90;;;6.00;;
8415;SDS011;4245;42.120;24.732;2023-02-27T04:40:47;20.43;;;7.50;;
8415;SDS011;4245;42.120;24.732;2023-02-27T04:43:19;26.70;;;7.90;;
8415;SDS011;4245;42.120;24.732;2023-02-27T04:45:49;23.60;;;7.60;;
8415;SDS011;4245;42.120;24.732;2023-02-27T04:48:20;17.37;;;5.30;;
8415;SDS011;4245;42.120;24.732;2023-02-27T04:50:50;18.60;;;4.30;;
8415;SDS011;4245;42.120;24.732;2023-02-27T04:53:21;23.57;;;4.33;;
8415;SDS011;4245;42.120;24.732;2023-02-27T04:55:52;9.50;;;3.30;;
8415;SDS011;4245;42.120;24.732;2023-02-27T04:58:24;7.00;;;2.10;;
8415;SDS011;4245;42.120;24.732;2023-02-27T05:00:56;7.03;;;2.43;;
8415;SDS011;4245;42.120;24.732;2023-02-27T05:03:28;6.60;;;1.90;;
8415;SDS011;4245;42.120;24.732;2023-02-27T05:05:59;2.77;;;1.50;;
8415;SDS011;4245;42.120;24.732;2023-02-27T05:08:28;3.67;;;1.40;;
8415;SDS011;4245;42.120;24.732;2023-02-27T05:11:02;6.00;;;1.70;;
8415;SDS011;4245;42.120;24.732;2023-02-27T05:13:37;5.17;;;1.60;;
8415;SDS011;4245;42.120;24.732;2023-02-27T05:16:08;4.30;;;1.60;;
8415;SDS011;4245;42.120;24.732;2023-02-27T05:18:42;2.80;;;1.67;;
8415;SDS011;4245;42.120;24.732;2023-02-27T05:21:13;8.93;;;2.60;;
8415;SDS011;4245;42.120;24.732;2023-02-27T05:23:52;3.73;;;2.13;;
8415;SDS011;4245;42.120;24.732;2023-02-27T05:26:35;7.63;;;2.63;;
8415;SDS011;4245;42.120;24.732;2023-02-27T05:29:21;9.60;;;2.13;;
8415;SDS011;4245;42.120;24.732;2023-02-27T05:31:55;6.67;;;2.83;;
8415;SDS011;4245;42.120;24.732;2023-02-27T05:34:31;5.53;;;1.80;;
8415;SDS011;4245;42.120;24.732;2023-02-27T05:37:00;6.87;;;2.10;;
8415;SDS011;4245;42.120;24.732;2023-02-27T05:39:32;7.53;;;2.33;;
8415;SDS011;4245;42.120;24.732;2023-02-27T05:42:04;4.27;;;2.00;;
8415;SDS011;4245;42.120;24.732;2023-02-27T05:44:37;6.37;;;2.33;;
8415;SDS011;4245;42.120;24.732;2023-02-27T05:47:08;7.10;;;2.80;;
8415;SDS011;4245;42.120;24.732;2023-02-27T05:49:40;5.07;;;2.83;;
8415;SDS011;4245;42.120;24.732;2023-02-27T05:52:11;10.40;;;4.07;;
8415;SDS011;4245;42.120;24.732;2023-02-27T05:54:43;5.13;;;2.43;;
8415;SDS011;4245;42.120;24.732;2023-02-27T05:57:16;3.63;;;2.23;;
8415;SDS011;4245;42.120;24.732;2023-02-27T05:59:51;6.17;;;2.23;;
8415;SDS011;4245;42.120;24.732;2023-02-27T06:02:25;6.03;;;3.03;;
8415;SDS011;4245;42.120;24.732;2023-02-27T06:04:52;9.27;;;3.00;;
8415;SDS011;4245;42.120;24.732;2023-02-27T06:07:21;4.50;;;2.43;;
8415;SDS011;4245;42.120;24.732;2023-02-27T06:09:48;6.23;;;2.40;;
8415;SDS011;4245;42.120;24.732;2023-02-27T06:12:15;4.23;;;2.10;;
8415;SDS011;4245;42.120;24.732;2023-02-27T06:14:43;9.63;;;5.17;;
8415;SDS011;4245;42.120;24.732;2023-02-27T06:17:11;5.40;;;4.50;;
8415;SDS011;4245;42.120;24.732;2023-02-27T06:19:38;4.10;;;3.00;;
8415;SDS011;4245;42.120;24.732;2023-02-27T06:22:05;6.73;;;2.67;;
8415;SDS011;4245;42.120;24.732;2023-02-27T06:24:32;7.00;;;3.50;;
8415;SDS011;4245;42.120;24.732;2023-02-27T06:26:58;18.00;;;10.30;;
8415;SDS011;4245;42.120;24.732;2023-02-27T06:29:25;4.80;;;2.77;;
8415;SDS011;4245;42.120;24.732;2023-02-27T06:31:52;8.57;;;3.83;;
8415;SDS011;4245;42.120;24.732;2023-02-27T06:34:21;5.07;;;3.07;;
8415;SDS011;4245;42.120;24.732;2023-02-27T06:36:48;9.70;;;2.77;;
8415;SDS011;4245;42.120;24.732;2023-02-27T06:39:14;6.50;;;3.00;;
8415;SDS011;4245;42.120;24.732;2023-02-27T06:41:41;3.60;;;2.47;;
8415;SDS011;4245;42.120;24.732;2023-02-27T06:44:08;6.77;;;3.00;;
8415;SDS011;4245;42.120;24.732;2023-02-27T06:46:35;11.70;;;3.33;;
8415;SDS011;4245;42.120;24.732;2023-02-27T06:49:02;5.60;;;3.03;;
8415;SDS011;4245;42.120;24.732;2023-02-27T06:51:30;6.27;;;3.23;;
8415;SDS011;4245;42.120;24.732;2023-02-27T06:53:57;40.17;;;22.37;;
8415;SDS011;4245;42.120;24.732;2023-02-27T06:56:23;53.80;;;30.47;;
8415;SDS011;4245;42.120;24.732;2023-02-27T06:58:50;24.23;;;15.20;;
8415;SDS011;4245;42.120;24.732;2023-02-27T07:01:17;15.70;;;9.13;;
8415;SDS011;4245;42.120;24.732;2023-02-27T07:03:44;17.70;;;9.53;;
8415;SDS011;4245;42.120;24.732;2023-02-27T07:06:10;9.03;;;4.33;;
8415;SDS011;4245;42.120;24.732;2023-02-27T07:08:39;13.47;;;4.50;;
8415;SDS011;4245;42.120;24.732;2023-02-27T07:11:06;11.83;;;3.73;;
8415;SDS011;4245;42.120;24.732;2023-02-27T07:13:32;15.93;;;6.50;;
8415;SDS011;4245;42.120;24.732;2023-02-27T07:16:00;11.00;;;4.73;;
8415;SDS011;4245;42.120;24.732;2023-02-27T07:18:27;9.63;;;4.20;;
8415;SDS011;4245;42.120;24.732;2023-02-27T07:20:54;9.20;;;4.03;;
8415;SDS011;4245;42.120;24.732;2023-02-27T07:23:21;9.20;;;3.93;;
8415;SDS011;4245;42.120;24.732;2023-02-27T07:25:49;8.60;;;3.60;;
8415;SDS011;4245;42.120;24.732;2023-02-27T07:28:16;9.40;;;3.20;;
8415;SDS011;4245;42.120;24.732;2023-02-27T07:30:43;7.03;;;3.47;;
8415;SDS011;4245;42.120;24.732;2023-02-27T07:33:10;8.83;;;3.43;;
8415;SDS011;4245;42.120;24.732;2023-02-27T07:35:37;14.47;;;4.57;;
8415;SDS011;4245;42.120;24.732;2023-02-27T07:38:04;13.93;;;5.90;;
8415;SDS011;4245;42.120;24.732;2023-02-27T07:40:30;17.60;;;4.63;;
8415;SDS011;4245;42.120;24.732;2023-02-27T07:42:59;16.50;;;4.53;;
8415;SDS011;4245;42.120;24.732;2023-02-27T07:45:41;11.40;;;4.40;;
8415;SDS011;4245;42.120;24.732;2023-02-27T07:48:07;13.77;;;4.10;;
8415;SDS011;4245;42.120;24.732;2023-02-27T07:50:34;13.63;;;4.10;;
8415;SDS011;4245;42.120;24.732;2023-02-27T07:53:01;13.20;;;4.87;;
8415;SDS011;4245;42.120;24.732;2023-02-27T07:55:29;12.27;;;5.07;;
8415;SDS011;4245;42.120;24.732;2023-02-27T07:57:56;15.97;;;5.80;;
8415;SDS011;4245;42.120;24.732;2023-02-27T08:00:24;19.90;;;4.93;;
8415;SDS011;4245;42.120;24.732;2023-02-27T08:02:51;19.90;;;5.10;;
8415;SDS011;4245;42.120;24.732;2023-02-27T08:05:18;14.40;;;4.57;;
8415;SDS011;4245;42.120;24.732;2023-02-27T08:07:45;11.10;;;3.93;;
8415;SDS011;4245;42.120;24.732;2023-02-27T08:10:12;10.93;;;3.50;;
8415;SDS011;4245;42.120;24.732;2023-02-27T08:12:40;16.13;;;3.87;;
8415;SDS011;4245;42.120;24.732;2023-02-27T08:15:07;10.43;;;2.97;;
8415;SDS011;4245;42.120;24.732;2023-02-27T08:17:36;12.00;;;3.40;;
8415;SDS011;4245;42.120;24.732;2023-02-27T08:20:03;10.50;;;3.07;;
8415;SDS011;4245;42.120;24.732;2023-02-27T08:22:33;13.27;;;3.30;;
8415;SDS011;4245;42.120;24.732;2023-02-27T08:25:00;8.43;;;2.87;;
8415;SDS011;4245;42.120;24.732;2023-02-27T08:27:27;12.50;;;3.50;;
8415;SDS011;4245;42.120;24.732;2023-02-27T08:29:53;9.93;;;3.20;;
8415;SDS011;4245;42.120;24.732;2023-02-27T08:32:20;11.33;;;3.20;;
8415;SDS011;4245;42.120;24.732;2023-02-27T08:34:49;10.83;;;3.20;;
8415;SDS011;4245;42.120;24.732;2023-02-27T08:37:15;11.20;;;4.97;;
8415;SDS011;4245;42.120;24.732;2023-02-27T08:39:42;11.27;;;4.40;;
8415;SDS011;4245;42.120;24.732;2023-02-27T08:42:09;12.90;;;4.77;;
8415;SDS011;4245;42.120;24.732;2023-02-27T08:44:36;14.27;;;7.53;;
8415;SDS011;4245;42.120;24.732;2023-02-27T08:47:02;10.67;;;3.83;;
8415;SDS011;4245;42.120;24.732;2023-02-27T08:49:29;8.33;;;4.13;;
8415;SDS011;4245;42.120;24.732;2023-02-27T08:51:57;12.00;;;3.93;;
8415;SDS011;4245;42.120;24.732;2023-02-27T08:54:25;15.50;;;5.63;;
8415;SDS011;4245;42.120;24.732;2023-02-27T08:56:52;10.57;;;4.83;;
8415;SDS011;4245;42.120;24.732;2023-02-27T08:59:18;9.17;;;4.40;;
8415;SDS011;4245;42.120;24.732;2023-02-27T09:01:45;14.50;;;4.10;;
8415;SDS011;4245;42.120;24.732;2023-02-27T09:04:12;10.20;;;4.13;;
8415;SDS011;4245;42.120;24.732;2023-02-27T09:06:39;12.73;;;4.07;;
8415;SDS011;4245;42.120;24.732;2023-02-27T09:09:07;11.13;;;3.90;;
8415;SDS011;4245;42.120;24.732;2023-02-27T09:11:34;13.50;;;3.77;;
8415;SDS011;4245;42.120;24.732;2023-02-27T09:14:01;9.83;;;3.93;;
8415;SDS011;4245;42.120;24.732;2023-02-27T09:16:28;11.73;;;3.40;;
8415;SDS011;4245;42.120;24.732;2023-02-27T09:18:55;10.90;;;3.47;;
8415;SDS011;4245;42.120;24.732;2023-02-27T09:21:21;8.07;;;3.50;;
8415;SDS011;4245;42.120;24.732;2023-02-27T09:23:49;6.37;;;3.40;;
8415;SDS011;4245;42.120;24.732;2023-02-27T09:26:17;11.30;;;3.77;;
8415;SDS011;4245;42.120;24.732;2023-02-27T09:28:44;11.70;;;3.30;;
8415;SDS011;4245;42.120;24.732;2023-02-27T09:31:11;12.73;;;3.73;;
8415;SDS011;4245;42.120;24.732;2023-02-27T09:33:37;8.67;;;3.70;;
8415;SDS011;4245;42.120;24.732;2023-02-27T09:36:05;10.23;;;3.70;;
8415;SDS011;4245;42.120;24.732;2023-02-27T09:38:32;8.27;;;3.97;;
8415;SDS011;4245;42.120;24.732;2023-02-27T09:41:00;10.37;;;4.40;;
8415;SDS011;4245;42.120;24.732;2023-02-27T09:43:31;11.93;;;4.20;;
8415;SDS011;4245;42.120;24.732;2023-02-27T09:46:03;9.97;;;4.13;;
8415;SDS011;4245;42.120;24.732;2023-02-27T09:48:33;10.43;;;4.00;;
8415;SDS011;4245;42.120;24.732;2023-02-27T09:51:04;14.03;;;4.00;;
8415;SDS011;4245;42.120;24.732;2023-02-27T09:53:32;10.27;;;3.83;;
8415;SDS011;4245;42.120;24.732;2023-02-27T09:56:05;11.60;;;3.10;;
8415;SDS011;4245;42.120;24.732;2023-02-27T09:58:39;8.17;;;3.30;;
8415;SDS011;4245;42.120;24.732;2023-02-27T10:01:11;11.27;;;3.00;;
8415;SDS011;4245;42.120;24.732;2023-02-27T10:06:51;10.00;;;3.60;;
8415;SDS011;4245;42.120;24.732;2023-02-27T10:09:31;6.33;;;3.17;;
8415;SDS011;4245;42.120;24.732;2023-02-27T10:12:06;9.60;;;3.27;;
8415;SDS011;4245;42.120;24.732;2023-02-27T10:14:42;12.97;;;3.60;;
8415;SDS011;4245;42.120;24.732;2023-02-27T10:17:14;11.17;;;5.77;;
8415;SDS011;4245;42.120;24.732;2023-02-27T10:19:46;36.47;;;19.50;;
8415;SDS011;4245;42.120;24.732;2023-02-27T10:22:17;12.07;;;4.90;;
8415;SDS011;4245;42.120;24.732;2023-02-27T10:24:49;13.77;;;3.90;;
8415;SDS011;4245;42.120;24.732;2023-02-27T10:27:20;10.40;;;3.50;;
8415;SDS011;4245;42.120;24.732;2023-02-27T10:29:49;15.45;;;3.40;;
8415;SDS011;4245;42.120;24.732;2023-02-27T10:32:18;11.57;;;3.42;;
8415;SDS011;4245;42.120;24.732;2023-02-27T10:34:49;11.63;;;3.23;;
8415;SDS011;4245;42.120;24.732;2023-02-27T10:37:20;15.77;;;3.50;;
8415;SDS011;4245;42.120;24.732;2023-02-27T10:39:51;12.30;;;3.43;;
8415;SDS011;4245;42.120;24.732;2023-02-27T10:42:20;8.17;;;3.70;;
8415;SDS011;4245;42.120;24.732;2023-02-27T10:44:50;14.93;;;3.70;;
8415;SDS011;4245;42.120;24.732;2023-02-27T10:47:17;16.02;;;3.60;;
8415;SDS011;4245;42.120;24.732;2023-02-27T10:49:47;21.92;;;4.18;;
8415;SDS011;4245;42.120;24.732;2023-02-27T10:52:14;18.90;;;3.47;;
8415;SDS011;4245;42.120;24.732;2023-02-27T10:54:42;18.20;;;3.50;;
8415;SDS011;4245;42.120;24.732;2023-02-27T11:00:20;19.70;;;4.97;;
8415;SDS011;4245;42.120;24.732;2023-02-27T11:02:50;27.53;;;6.40;;
8415;SDS011;4245;42.120;24.732;2023-02-27T11:05:19;20.30;;;5.00;;
8415;SDS011;4245;42.120;24.732;2023-02-27T11:07:50;22.45;;;4.53;;
8415;SDS011;4245;42.120;24.732;2023-02-27T11:10:18;23.83;;;5.47;;
8415;SDS011;4245;42.120;24.732;2023-02-27T11:15:34;18.77;;;4.20;;
8415;SDS011;4245;42.120;24.732;2023-02-27T11:18:17;14.57;;;4.28;;
8415;SDS011;4245;42.120;24.732;2023-02-27T11:20:46;16.80;;;4.15;;
8415;SDS011;4245;42.120;24.732;2023-02-27T11:23:16;15.65;;;3.60;;
8415;SDS011;4245;42.120;24.732;2023-02-27T11:25:45;15.20;;;3.50;;
8415;SDS011;4245;42.120;24.732;2023-02-27T11:28:17;20.58;;;3.60;;
8415;SDS011;4245;42.120;24.732;2023-02-27T11:30:55;17.17;;;4.00;;
8415;SDS011;4245;42.120;24.732;2023-02-27T11:33:25;20.07;;;4.23;;
8415;SDS011;4245;42.120;24.732;2023-02-27T11:35:54;19.23;;;3.83;;
8415;SDS011;4245;42.120;24.732;2023-02-27T11:38:24;18.13;;;3.90;;
8415;SDS011;4245;42.120;24.732;2023-02-27T11:40:54;18.23;;;4.13;;
8415;SDS011;4245;42.120;24.732;2023-02-27T11:43:23;17.40;;;4.10;;
8415;SDS011;4245;42.120;24.732;2023-02-27T11:45:53;21.02;;;4.60;;
8415;SDS011;4245;42.120;24.732;2023-02-27T11:48:24;18.63;;;4.32;;
8415;SDS011;4245;42.120;24.732;2023-02-27T11:56:46;19.25;;;4.60;;
8415;SDS011;4245;42.120;24.732;2023-02-27T12:02:11;19.10;;;6.57;;
8415;SDS011;4245;42.120;24.732;2023-02-27T12:04:45;18.83;;;4.00;;
8415;SDS011;4245;42.120;24.732;2023-02-27T12:07:17;15.68;;;3.45;;
8415;SDS011;4245;42.120;24.732;2023-02-27T12:09:50;25.70;;;4.28;;
8415;SDS011;4245;42.120;24.732;2023-02-27T12:12:25;18.35;;;3.53;;
8415;SDS011;4245;42.120;24.732;2023-02-27T12:14:59;13.93;;;3.88;;
8415;SDS011;4245;42.120;24.732;2023-02-27T12:17:38;17.52;;;4.72;;
8415;SDS011;4245;42.120;24.732;2023-02-27T12:22:57;20.83;;;4.35;;
8415;SDS011;4245;42.120;24.732;2023-02-27T12:25:34;18.80;;;4.07;;
8415;SDS011;4245;42.120;24.732;2023-02-27T12:28:06;19.88;;;4.13;;
8415;SDS011;4245;42.120;24.732;2023-02-27T12:30:46;17.97;;;4.93;;
8415;SDS011;4245;42.120;24.732;2023-02-27T12:33:23;23.63;;;4.73;;
8415;SDS011;4245;42.120;24.732;2023-02-27T12:35:58;22.37;;;4.93;;
8415;SDS011;4245;42.120;24.732;2023-02-27T12:38:27;22.57;;;4.97;;
8415;SDS011;4245;42.120;24.732;2023-02-27T12:40:58;16.53;;;4.73;;
8415;SDS011;4245;42.120;24.732;2023-02-27T12:43:34;17.73;;;4.40;;
8415;SDS011;4245;42.120;24.732;2023-02-27T12:46:15;20.33;;;4.17;;
8415;SDS011;4245;42.120;24.732;2023-02-27T12:51:42;17.27;;;4.10;;
8415;SDS011;4245;42.120;24.732;2023-02-27T12:54:24;15.27;;;4.00;;
8415;SDS011;4245;42.120;24.732;2023-02-27T12:57:05;19.33;;;4.00;;
8415;SDS011;4245;42.120;24.732;2023-02-27T12:59:52;19.00;;;4.00;;
8415;SDS011;4245;42.120;24.732;2023-02-27T13:02:53;31.07;;;5.03;;
8415;SDS011;4245;42.120;24.732;2023-02-27T13:05:36;17.67;;;4.00;;
8415;SDS011;4245;42.120;24.732;2023-02-27T13:08:09;17.60;;;4.93;;
8415;SDS011;4245;42.120;24.732;2023-02-27T13:10:53;25.80;;;4.30;;
8415;SDS011;4245;42.120;24.732;2023-02-27T13:13:30;22.67;;;4.43;;
8415;SDS011;4245;42.120;24.732;2023-02-27T13:16:04;16.63;;;3.77;;
8415;SDS011;4245;42.120;24.732;2023-02-27T13:18:39;14.53;;;3.70;;
8415;SDS011;4245;42.120;24.732;2023-02-27T13:21:11;16.30;;;3.67;;
8415;SDS011;4245;42.120;24.732;2023-02-27T13:23:49;18.23;;;4.97;;
8415;SDS011;4245;42.120;24.732;2023-02-27T13:26:23;15.77;;;3.50;;
8415;SDS011;4245;42.120;24.732;2023-02-27T13:28:52;18.97;;;4.23;;
8415;SDS011;4245;42.120;24.732;2023-02-27T13:31:24;33.77;;;9.47;;
8415;SDS011;4245;42.120;24.732;2023-02-27T13:34:01;24.70;;;5.80;;
8415;SDS011;4245;42.120;24.732;2023-02-27T13:36:37;15.33;;;5.03;;
8415;SDS011;4245;42.120;24.732;2023-02-27T13:51:07;19.23;;;4.13;;
8415;SDS011;4245;42.120;24.732;2023-02-27T13:53:38;20.10;;;4.53;;
8415;SDS011;4245;42.120;24.732;2023-02-27T13:56:18;33.13;;;5.67;;
8415;SDS011;4245;42.120;24.732;2023-02-27T13:58:47;14.97;;;4.13;;
8415;SDS011;4245;42.120;24.732;2023-02-27T14:01:15;20.73;;;4.00;;
8415;SDS011;4245;42.120;24.732;2023-02-27T14:03:51;23.47;;;4.63;;
8415;SDS011;4245;42.120;24.732;2023-02-27T14:06:20;15.80;;;3.70;;
8415;SDS011;4245;42.120;24.732;2023-02-27T14:08:50;28.27;;;4.17;;
8415;SDS011;4245;42.120;24.732;2023-02-27T14:11:22;16.03;;;4.10;;
8415;SDS011;4245;42.120;24.732;2023-02-27T14:13:58;17.93;;;4.23;;
8415;SDS011;4245;42.120;24.732;2023-02-27T14:22:32;26.07;;;4.90;;
8415;SDS011;4245;42.120;24.732;2023-02-27T14:25:19;18.13;;;4.80;;
8415;SDS011;4245;42.120;24.732;2023-02-27T14:27:50;25.23;;;5.00;;
8415;SDS011;4245;42.120;24.732;2023-02-27T14:30:24;29.13;;;5.13;;
8415;SDS011;4245;42.120;24.732;2023-02-27T14:33:11;30.17;;;4.93;;
8415;SDS011;4245;42.120;24.732;2023-02-27T14:35:44;21.53;;;5.60;;
8415;SDS011;4245;42.120;24.732;2023-02-27T14:38:14;21.83;;;5.80;;
8415;SDS011;4245;42.120;24.732;2023-02-27T14:40:50;32.00;;;6.87;;
8415;SDS011;4245;42.120;24.732;2023-02-27T14:43:28;28.30;;;5.70;;
8415;SDS011;4245;42.120;24.732;2023-02-27T14:46:04;27.50;;;6.70;;
8415;SDS011;4245;42.120;24.732;2023-02-27T14:48:37;27.33;;;5.97;;
8415;SDS011;4245;42.120;24.732;2023-02-27T14:51:04;36.40;;;6.83;;
8415;SDS011;4245;42.120;24.732;2023-02-27T14:53:31;29.60;;;6.93;;
8415;SDS011;4245;42.120;24.732;2023-02-27T14:56:00;26.20;;;7.03;;
8415;SDS011;4245;42.120;24.732;2023-02-27T14:58:26;24.60;;;6.03;;
8415;SDS011;4245;42.120;24.732;2023-02-27T15:00:58;33.13;;;6.93;;
8415;SDS011;4245;42.120;24.732;2023-02-27T15:03:31;28.33;;;7.07;;
8415;SDS011;4245;42.120;24.732;2023-02-27T15:06:03;32.70;;;7.77;;
8415;SDS011;4245;42.120;24.732;2023-02-27T15:08:39;30.37;;;6.80;;
8415;SDS011;4245;42.120;24.732;2023-02-27T15:11:14;25.47;;;6.77;;
8415;SDS011;4245;42.120;24.732;2023-02-27T15:13:42;33.13;;;7.93;;
8415;SDS011;4245;42.120;24.732;2023-02-27T15:16:29;31.33;;;6.73;;
8415;SDS011;4245;42.120;24.732;2023-02-27T15:19:00;30.43;;;7.23;;
8415;SDS011;4245;42.120;24.732;2023-02-27T15:21:38;25.70;;;7.40;;
8415;SDS011;4245;42.120;24.732;2023-02-27T15:24:16;38.73;;;9.53;;
8415;SDS011;4245;42.120;24.732;2023-02-27T15:26:49;31.50;;;9.43;;
8415;SDS011;4245;42.120;24.732;2023-02-27T15:29:19;40.23;;;10.23;;
8415;SDS011;4245;42.120;24.732;2023-02-27T15:31:48;29.60;;;9.43;;
8415;SDS011;4245;42.120;24.732;2023-02-27T15:34:16;31.73;;;7.40;;
8415;SDS011;4245;42.120;24.732;2023-02-27T15:36:45;28.40;;;8.00;;
8415;SDS011;4245;42.120;24.732;2023-02-27T15:39:15;28.03;;;8.47;;
8415;SDS011;4245;42.120;24.732;2023-02-27T15:41:43;56.90;;;13.27;;
8415;SDS011;4245;42.120;24.732;2023-02-27T15:44:14;38.87;;;10.33;;
8415;SDS011;4245;42.120;24.732;2023-02-27T15:46:42;38.40;;;8.43;;
8415;SDS011;4245;42.120;24.732;2023-02-27T15:49:14;36.47;;;7.87;;
8415;SDS011;4245;42.120;24.732;2023-02-27T15:51:44;29.50;;;6.90;;
8415;SDS011;4245;42.120;24.732;2023-02-27T15:54:12;29.67;;;8.00;;
8415;SDS011;4245;42.120;24.732;2023-02-27T15:56:40;37.53;;;8.53;;
8415;SDS011;4245;42.120;24.732;2023-02-27T15:59:09;37.57;;;9.57;;
8415;SDS011;4245;42.120;24.732;2023-02-27T16:01:43;26.27;;;7.83;;
8415;SDS011;4245;42.120;24.732;2023-02-27T16:04:14;39.80;;;9.40;;
8415;SDS011;4245;42.120;24.732;2023-02-27T16:06:46;32.80;;;8.77;;